createdAt,value
2019-03-12T00:00:46.206Z,49.80
2019-03-12T00:03:15.325Z,49.10
2019-03-12T00:05:44.223Z,49.40
2019-03-12T00:08:13.124Z,50.10
2019-03-12T00:10:42.022Z,50.50
2019-03-12T00:13:11.001Z,49.70
2019-03-12T00:15:39.974Z,49.90
2019-03-12T00:18:08.919Z,49.90
2019-03-12T00:20:37.914Z,49.10
2019-03-12T00:23:06.737Z,48.70
2019-03-12T00:25:35.586Z,49.30
2019-03-12T00:28:04.551Z,49.30
2019-03-12T00:30:33.531Z,49.30
2019-03-12T00:33:02.669Z,48.70
2019-03-12T00:35:31.650Z,49.40
2019-03-12T00:38:00.494Z,49.90
2019-03-12T00:40:29.307Z,48.60
2019-03-12T00:42:58.147Z,48.90
2019-03-12T00:45:26.966Z,49.20
2019-03-12T00:47:55.961Z,49.20
2019-03-12T00:50:24.952Z,49.30
2019-03-12T00:52:53.785Z,49.40
2019-03-12T00:55:22.600Z,49.40
2019-03-12T00:57:51.498Z,49.30
2019-03-12T01:00:20.666Z,49.00
2019-03-12T01:02:49.507Z,49.50
2019-03-12T01:05:18.578Z,49.30
2019-03-12T01:07:47.472Z,48.90
2019-03-12T01:10:16.395Z,49.50
2019-03-12T01:12:45.283Z,49.20
2019-03-12T01:15:14.711Z,48.70
2019-03-12T01:17:43.674Z,49.40
2019-03-12T01:20:12.980Z,48.90
2019-03-12T01:22:41.965Z,48.50
2019-03-12T01:25:11.865Z,49.30
2019-03-12T01:27:40.795Z,48.40
2019-03-12T01:30:12.006Z,48.60
2019-03-12T01:32:40.849Z,50.00
2019-03-12T01:35:10.009Z,48.50
2019-03-12T01:37:38.832Z,48.70
2019-03-12T01:40:09.226Z,49.60
2019-03-12T01:42:38.059Z,49.80
2019-03-12T01:45:08.837Z,49.30
2019-03-12T01:47:37.675Z,49.30
2019-03-12T01:50:06.911Z,48.90
2019-03-12T01:52:35.820Z,50.00
2019-03-12T01:55:05.304Z,48.90
2019-03-12T01:57:34.113Z,49.30
2019-03-12T02:00:03.104Z,49.50
2019-03-12T02:02:32.051Z,46.60
2019-03-12T02:05:01.213Z,46.30
2019-03-12T02:07:30.267Z,48.00
2019-03-12T02:09:59.097Z,48.80
2019-03-12T02:12:28.015Z,49.10
2019-03-12T02:14:56.841Z,47.60
2019-03-12T02:17:25.694Z,49.20
2019-03-12T02:19:54.598Z,48.20
2019-03-12T02:22:23.405Z,49.00
2019-03-12T02:24:53.214Z,49.10
2019-03-12T02:27:22.700Z,49.20
2019-03-12T02:29:51.497Z,48.90
2019-03-12T02:32:20.390Z,48.60
2019-03-12T02:34:49.213Z,48.50
2019-03-12T02:37:18.066Z,48.80
2019-03-12T02:39:47.026Z,48.50
2019-03-12T02:42:15.935Z,48.70
2019-03-12T02:44:44.804Z,48.90
2019-03-12T02:47:13.637Z,48.00
2019-03-12T02:49:42.722Z,48.90
2019-03-12T02:52:11.609Z,49.00
2019-03-12T02:54:40.438Z,49.50
2019-03-12T02:57:09.390Z,49.00
2019-03-12T02:59:38.306Z,48.70
2019-03-12T03:02:07.198Z,49.00
2019-03-12T03:04:36.087Z,49.20
2019-03-12T03:07:18.606Z,48.80
2019-03-12T03:09:47.492Z,48.90
2019-03-12T03:12:16.327Z,49.40
2019-03-12T03:14:45.138Z,49.50
2019-03-12T03:17:16.119Z,48.00
2019-03-12T03:19:45.078Z,49.00
2019-03-12T03:22:13.904Z,49.30
2019-03-12T03:24:42.788Z,48.70
2019-03-12T03:27:11.615Z,48.30
2019-03-12T03:29:40.422Z,49.10
2019-03-12T03:32:09.343Z,48.20
2019-03-12T03:34:38.173Z,48.80
2019-03-12T03:37:07.091Z,48.90
2019-03-12T03:39:35.923Z,48.90
2019-03-12T03:42:04.911Z,49.10
2019-03-12T03:44:33.739Z,48.70
2019-03-12T03:47:02.762Z,49.00
2019-03-12T03:49:31.627Z,48.50
2019-03-12T03:52:00.558Z,49.60
2019-03-12T03:54:29.441Z,49.00
2019-03-12T03:56:58.426Z,48.30
2019-03-12T03:59:27.301Z,48.60
2019-03-12T04:01:56.255Z,49.00
2019-03-12T04:04:25.158Z,49.00
2019-03-12T04:06:54.058Z,48.80
2019-03-12T04:09:22.896Z,48.80
2019-03-12T04:11:51.784Z,48.60
2019-03-12T04:14:20.622Z,48.70
2019-03-12T04:16:49.486Z,48.70
2019-03-12T04:19:18.321Z,47.50
2019-03-12T04:21:47.362Z,48.00
2019-03-12T04:24:16.234Z,48.50
2019-03-12T04:26:45.105Z,48.60
2019-03-12T04:29:14.005Z,48.40
2019-03-12T04:31:42.894Z,47.80
2019-03-12T04:34:17.210Z,48.80
2019-03-12T04:36:47.337Z,48.40
2019-03-12T04:39:16.151Z,47.40
2019-03-12T04:41:45.057Z,48.20
2019-03-12T04:44:14.002Z,47.10
2019-03-12T04:46:42.902Z,48.40
2019-03-12T04:49:11.780Z,48.00
2019-03-12T04:51:40.714Z,48.40
2019-03-12T04:54:09.529Z,47.60
2019-03-12T04:56:38.490Z,48.60
2019-03-12T04:59:07.320Z,45.30
2019-03-12T05:01:36.148Z,44.60
2019-03-12T05:04:05.133Z,45.30
2019-03-12T05:06:34.049Z,47.10
2019-03-12T05:09:05.016Z,47.50
2019-03-12T05:11:33.997Z,48.00
2019-03-12T05:14:25.982Z,48.00
2019-03-12T05:16:57.712Z,47.50
2019-03-12T05:19:27.757Z,48.30
2019-03-12T05:21:56.714Z,47.10
2019-03-12T05:24:25.677Z,48.30
2019-03-12T05:26:54.501Z,48.40
2019-03-12T05:29:23.538Z,48.60
2019-03-12T05:31:52.488Z,48.40
2019-03-12T05:34:23.225Z,48.20
2019-03-12T05:36:51.865Z,47.90
2019-03-12T05:39:20.703Z,48.00
2019-03-12T05:41:49.858Z,47.70
2019-03-12T05:44:18.722Z,47.50
2019-03-12T05:46:47.546Z,46.40
2019-03-12T05:49:16.418Z,47.80
2019-03-12T05:51:45.409Z,47.80
2019-03-12T05:54:14.313Z,47.90
2019-03-12T05:56:43.122Z,47.60
2019-03-12T05:59:12.114Z,47.70
2019-03-12T06:01:41.019Z,48.20
2019-03-12T06:04:09.846Z,47.40
2019-03-12T06:06:38.698Z,48.50
2019-03-12T06:09:08.462Z,47.90
2019-03-12T06:11:37.288Z,47.80
2019-03-12T06:14:06.545Z,47.40
2019-03-12T06:16:35.397Z,47.30
2019-03-12T06:19:04.431Z,47.10
2019-03-12T06:21:33.234Z,47.10
2019-03-12T06:24:02.144Z,47.50
2019-03-12T06:26:31.035Z,47.20
2019-03-12T06:28:59.870Z,47.40
2019-03-12T06:31:50.983Z,47.00
2019-03-12T06:34:38.983Z,47.40
2019-03-12T06:37:31.958Z,47.80
2019-03-12T06:40:15.431Z,47.10
2019-03-12T06:42:59.093Z,47.50
2019-03-12T06:45:40.318Z,47.40
2019-03-12T06:48:25.365Z,47.30
2019-03-12T06:51:00.322Z,47.40
2019-03-12T06:53:42.823Z,47.60
2019-03-12T06:56:33.530Z,45.00
2019-03-12T06:59:20.232Z,44.40
2019-03-12T07:02:13.906Z,43.60
2019-03-12T07:04:55.703Z,43.20
2019-03-12T07:07:53.158Z,43.00
2019-03-12T07:10:39.860Z,42.90
2019-03-12T07:13:16.948Z,43.30
2019-03-12T07:16:07.934Z,42.80
2019-03-12T07:18:48.623Z,42.90
2019-03-12T07:21:36.366Z,43.20
2019-03-12T07:24:23.167Z,43.00
2019-03-12T07:27:03.119Z,42.00
2019-03-12T07:29:43.140Z,42.10
2019-03-12T07:32:37.170Z,42.20
2019-03-12T07:35:13.078Z,42.80
2019-03-12T07:37:56.532Z,43.50
2019-03-12T07:40:47.657Z,43.20
2019-03-12T07:43:34.144Z,43.50
2019-03-12T07:46:17.954Z,43.80
2019-03-12T07:48:58.232Z,43.90
2019-03-12T07:51:49.203Z,44.10
2019-03-12T07:54:55.504Z,44.20
2019-03-12T07:57:38.078Z,43.80
2019-03-12T08:00:32.666Z,44.00
2019-03-12T08:03:19.296Z,43.50
2019-03-12T08:05:54.763Z,43.60
2019-03-12T08:08:45.701Z,43.50
2019-03-12T08:11:22.015Z,43.50
2019-03-12T08:14:03.592Z,43.30
2019-03-12T08:16:51.659Z,43.30
2019-03-12T08:19:38.417Z,43.20
2019-03-12T08:22:18.728Z,43.00
2019-03-12T08:24:58.758Z,43.00
2019-03-12T08:27:45.329Z,42.90
2019-03-12T08:30:45.560Z,43.00
2019-03-12T08:33:50.910Z,42.80
2019-03-12T08:36:40.837Z,42.80
2019-03-12T08:39:22.218Z,42.40
2019-03-12T08:42:05.967Z,42.80
2019-03-12T08:44:59.042Z,43.10
2019-03-12T08:47:45.540Z,42.40
2019-03-12T08:50:33.596Z,42.30
2019-03-12T08:53:29.259Z,42.30
2019-03-12T08:56:23.037Z,42.10
2019-03-12T08:59:20.165Z,42.10
2019-03-12T09:02:02.550Z,42.80
2019-03-12T09:04:38.325Z,42.20
2019-03-12T09:07:29.499Z,42.30
2019-03-12T09:10:08.926Z,42.60
2019-03-12T09:12:48.334Z,42.80
2019-03-12T09:15:30.738Z,41.80
2019-03-12T09:18:11.219Z,41.60
2019-03-12T09:20:58.033Z,41.20
2019-03-12T09:23:41.173Z,41.40
2019-03-12T09:26:38.339Z,41.30
2019-03-12T09:29:13.429Z,41.40
2019-03-12T09:32:05.470Z,40.90
2019-03-12T09:35:11.634Z,41.00
2019-03-12T09:37:58.536Z,41.10
2019-03-12T09:40:34.890Z,41.00
2019-03-12T09:43:26.130Z,40.80
2019-03-12T09:46:13.641Z,40.70
2019-03-12T09:48:53.786Z,40.70
2019-03-12T09:51:42.105Z,40.60
2019-03-12T09:54:31.190Z,40.70
2019-03-12T09:57:17.618Z,40.70
2019-03-12T10:00:15.466Z,40.40
2019-03-12T10:02:56.130Z,40.40
2019-03-12T10:05:47.262Z,40.60
2019-03-12T10:08:34.403Z,40.30
2019-03-12T10:11:28.465Z,40.10
2019-03-12T10:14:19.200Z,40.20
2019-03-12T10:17:06.865Z,40.20
2019-03-12T10:19:43.352Z,40.00
2019-03-12T10:22:35.451Z,40.90
2019-03-12T10:25:22.926Z,40.20
2019-03-12T10:27:58.242Z,40.10
2019-03-12T10:30:40.536Z,40.20
2019-03-12T10:33:19.780Z,40.10
2019-03-12T10:36:03.038Z,40.20
2019-03-12T10:39:22.713Z,40.40
2019-03-12T10:41:56.669Z,40.10
2019-03-12T10:44:31.249Z,40.20
2019-03-12T10:47:05.614Z,40.10
2019-03-12T10:49:37.802Z,40.20
2019-03-12T10:52:05.337Z,40.00
2019-03-12T10:54:34.158Z,40.10
2019-03-12T10:57:03.153Z,40.20
2019-03-12T10:59:31.969Z,40.00
2019-03-12T11:02:00.935Z,40.10
2019-03-12T11:04:29.766Z,40.00
2019-03-12T11:06:58.610Z,39.90
2019-03-12T11:09:27.514Z,40.00
2019-03-12T11:11:56.411Z,39.90
2019-03-12T11:14:25.322Z,39.90
2019-03-12T11:16:54.199Z,39.80
2019-03-12T11:19:23.039Z,39.80
2019-03-12T11:21:52.018Z,39.60
2019-03-12T11:24:20.923Z,39.80
2019-03-12T11:26:49.806Z,39.60
2019-03-12T11:29:18.617Z,39.50
2019-03-12T11:31:47.461Z,39.80
2019-03-12T11:34:16.317Z,39.50
2019-03-12T11:36:46.161Z,39.50
2019-03-12T11:39:15.141Z,39.40
2019-03-12T11:41:44.129Z,39.40
2019-03-12T11:44:13.185Z,39.50
2019-03-12T11:46:45.261Z,39.40
2019-03-12T11:49:12.767Z,39.60
2019-03-12T11:51:41.703Z,39.50
2019-03-12T11:54:10.679Z,39.50
2019-03-12T11:56:39.589Z,39.40
2019-03-12T11:59:08.530Z,39.50
2019-03-12T12:01:37.509Z,39.40
2019-03-12T12:04:06.538Z,39.40
2019-03-12T12:06:35.381Z,39.40
2019-03-12T12:09:06.218Z,39.30
2019-03-12T12:11:35.191Z,39.20
2019-03-12T12:14:04.603Z,39.40
2019-03-12T12:16:33.886Z,39.40
2019-03-12T12:19:02.895Z,39.20
2019-03-12T12:21:31.738Z,39.20
2019-03-12T12:24:00.557Z,39.20
2019-03-12T12:26:29.390Z,39.30
2019-03-12T12:28:58.261Z,39.20
2019-03-12T12:31:27.170Z,39.20
2019-03-12T12:33:56.063Z,39.20
2019-03-12T12:36:24.955Z,39.10
2019-03-12T12:38:53.863Z,39.10
2019-03-12T12:41:22.873Z,39.00
2019-03-12T12:43:51.914Z,39.10
2019-03-12T12:46:20.964Z,39.20
2019-03-12T12:48:53.074Z,39.20
2019-03-12T12:51:20.479Z,38.90
2019-03-12T12:53:49.436Z,38.90
2019-03-12T12:56:18.253Z,39.00
2019-03-12T12:58:47.300Z,39.10
2019-03-12T13:01:16.123Z,38.90
2019-03-12T13:03:45.014Z,38.80
2019-03-12T13:06:13.923Z,38.80
2019-03-12T13:08:42.840Z,38.80
2019-03-12T13:11:11.658Z,38.80
2019-03-12T13:13:40.570Z,38.80
2019-03-12T13:16:09.473Z,38.80
2019-03-12T13:18:38.315Z,38.90
2019-03-12T13:21:07.217Z,38.70
2019-03-12T13:23:36.334Z,38.70
2019-03-12T13:26:05.457Z,38.70
2019-03-12T13:28:34.339Z,38.70
2019-03-12T13:31:03.158Z,38.90
2019-03-12T13:33:31.978Z,39.10
2019-03-12T13:36:00.895Z,38.90
2019-03-12T13:38:44.701Z,38.80
2019-03-12T13:41:02.991Z,38.70
2019-03-12T13:43:30.989Z,38.80
2019-03-12T13:46:00.084Z,38.70
2019-03-12T13:48:29.041Z,38.70
2019-03-12T13:50:58.439Z,38.70
2019-03-12T13:53:27.494Z,38.70
2019-03-12T13:55:56.485Z,38.70
2019-03-12T13:58:25.375Z,38.50
2019-03-12T14:00:54.185Z,38.70
2019-03-12T14:03:23.064Z,38.40
2019-03-12T14:05:52.022Z,38.50
2019-03-12T14:08:21.003Z,38.50
2019-03-12T14:10:49.880Z,38.70
2019-03-12T14:13:18.791Z,38.70
2019-03-12T14:15:47.758Z,38.50
2019-03-12T14:18:16.669Z,38.50
2019-03-12T14:20:47.858Z,38.50
2019-03-12T14:23:28.813Z,38.50
2019-03-12T14:26:07.087Z,38.60
2019-03-12T14:28:36.074Z,38.20
2019-03-12T14:31:05.652Z,38.40
2019-03-12T14:33:34.930Z,38.50
2019-03-12T14:36:03.904Z,38.60
2019-03-12T14:38:32.774Z,38.30
2019-03-12T14:41:01.790Z,38.40
2019-03-12T14:43:30.772Z,38.40
2019-03-12T14:45:59.672Z,38.50
2019-03-12T14:48:39.657Z,38.60
2019-03-12T14:51:14.822Z,38.50
2019-03-12T14:53:43.932Z,38.50
2019-03-12T14:56:12.932Z,38.50
2019-03-12T14:58:41.775Z,38.70
2019-03-12T15:01:10.740Z,38.60
2019-03-12T15:03:39.802Z,38.60
2019-03-12T15:06:08.791Z,38.80
2019-03-12T15:08:37.608Z,38.60
2019-03-12T15:11:06.534Z,38.70
2019-03-12T15:13:35.421Z,38.90
2019-03-12T15:16:04.613Z,38.70
2019-03-12T15:18:33.700Z,38.80
2019-03-12T15:21:02.628Z,38.70
2019-03-12T15:23:31.630Z,38.60
2019-03-12T15:26:00.535Z,38.70
2019-03-12T15:28:29.351Z,38.80
2019-03-12T15:30:58.363Z,38.80
2019-03-12T15:33:27.285Z,38.60
2019-03-12T15:35:56.169Z,38.80
2019-03-12T15:38:25.128Z,38.80
2019-03-12T15:40:54.448Z,38.90
2019-03-12T15:43:23.532Z,38.80
2019-03-12T15:45:52.438Z,38.80
2019-03-12T15:48:21.604Z,38.90
2019-03-12T15:50:51.006Z,38.90
2019-03-12T15:53:19.926Z,38.90
2019-03-12T15:55:48.748Z,38.90
2019-03-12T15:58:17.703Z,38.80
2019-03-12T16:00:46.666Z,38.90
2019-03-12T16:03:15.573Z,39.00
2019-03-12T16:05:44.467Z,39.00
2019-03-12T16:08:13.473Z,38.90
2019-03-12T16:10:42.401Z,38.90
2019-03-12T16:13:11.366Z,38.80
2019-03-12T16:15:40.215Z,39.00
2019-03-12T16:18:09.098Z,39.00
2019-03-12T16:20:38.009Z,39.10
2019-03-12T16:23:06.981Z,39.00
2019-03-12T16:25:35.949Z,38.90
2019-03-12T16:28:04.934Z,38.90
2019-03-12T16:30:33.776Z,39.00
2019-03-12T16:33:02.667Z,38.90
2019-03-12T16:35:31.513Z,39.00
2019-03-12T16:38:00.372Z,39.10
2019-03-12T16:40:29.395Z,39.00
2019-03-12T16:42:58.234Z,39.10
2019-03-12T16:45:27.204Z,39.20
2019-03-12T16:47:56.077Z,39.10
2019-03-12T16:50:24.919Z,39.20
2019-03-12T16:52:53.745Z,39.80
2019-03-12T16:55:22.732Z,39.20
2019-03-12T16:57:51.542Z,39.30
2019-03-12T17:00:21.109Z,39.40
2019-03-12T17:02:50.108Z,39.50
2019-03-12T17:05:19.354Z,39.50
2019-03-12T17:07:48.176Z,39.50
2019-03-12T17:10:16.765Z,39.50
2019-03-12T17:12:46.086Z,39.60
2019-03-12T17:15:15.445Z,39.70
2019-03-12T17:17:44.418Z,39.70
2019-03-12T17:20:13.625Z,39.80
2019-03-12T17:22:42.520Z,39.90
2019-03-12T17:25:11.941Z,40.10
2019-03-12T17:27:40.899Z,40.40
2019-03-12T17:30:13.016Z,40.20
2019-03-12T17:32:41.927Z,40.40
2019-03-12T17:35:11.829Z,40.80
2019-03-12T17:37:40.896Z,41.50
2019-03-12T17:40:13.409Z,41.60
2019-03-12T17:42:42.327Z,41.30
2019-03-12T17:45:11.557Z,41.70
2019-03-12T17:47:40.546Z,42.10
2019-03-12T17:50:10.545Z,42.20
2019-03-12T17:52:39.527Z,42.10
2019-03-12T17:55:09.984Z,42.70
2019-03-12T17:57:38.945Z,42.80
2019-03-12T18:00:14.429Z,43.40
2019-03-12T18:02:43.329Z,43.50
2019-03-12T18:05:12.347Z,44.00
2019-03-12T18:07:41.297Z,43.70
2019-03-12T18:10:11.310Z,44.20
2019-03-12T18:12:40.279Z,44.00
2019-03-12T18:15:11.597Z,43.20
2019-03-12T18:17:40.504Z,43.10
2019-03-12T18:20:11.506Z,43.80
2019-03-12T18:22:40.451Z,43.40
2019-03-12T18:25:12.635Z,43.50
2019-03-12T18:27:41.693Z,44.00
2019-03-12T18:30:13.383Z,43.30
2019-03-12T18:32:42.710Z,43.40
2019-03-12T18:35:11.852Z,43.40
2019-03-12T18:37:40.754Z,43.80
2019-03-12T18:40:12.741Z,43.50
2019-03-12T18:42:41.681Z,43.80
2019-03-12T18:45:13.017Z,43.40
2019-03-12T18:47:41.983Z,43.70
2019-03-12T18:50:12.203Z,43.50
2019-03-12T18:52:41.124Z,43.80
2019-03-12T18:55:17.697Z,43.40
2019-03-12T18:57:46.565Z,44.10
2019-03-12T19:00:15.531Z,43.40
2019-03-12T19:02:44.382Z,43.50
2019-03-12T19:05:13.882Z,43.30
2019-03-12T19:07:42.723Z,43.20
2019-03-12T19:10:13.055Z,43.50
2019-03-12T19:12:42.297Z,44.00
2019-03-12T19:15:11.326Z,43.70
2019-03-12T19:17:40.489Z,43.50
2019-03-12T19:20:09.493Z,43.50
2019-03-12T19:22:38.375Z,43.50
2019-03-12T19:25:07.614Z,43.60
2019-03-12T19:27:36.609Z,43.30
2019-03-12T19:30:06.440Z,43.20
2019-03-12T19:32:41.448Z,43.30
2019-03-12T19:35:12.479Z,43.50
2019-03-12T19:37:41.394Z,44.00
2019-03-12T19:40:13.741Z,43.40
2019-03-12T19:42:42.706Z,43.50
2019-03-12T19:45:11.703Z,43.70
2019-03-12T19:47:40.752Z,43.80
2019-03-12T19:50:12.149Z,43.30
2019-03-12T19:52:40.989Z,43.30
2019-03-12T19:55:12.465Z,43.60
2019-03-12T19:57:41.298Z,43.80
2019-03-12T20:00:13.248Z,43.50
2019-03-12T20:02:43.340Z,44.00
2019-03-12T20:05:12.608Z,43.60
2019-03-12T20:07:41.570Z,44.30
2019-03-12T20:10:44.298Z,43.80
2019-03-12T20:13:53.396Z,44.00
2019-03-12T20:17:09.878Z,44.20
2019-03-12T20:20:26.310Z,44.90
2019-03-12T20:23:50.431Z,44.20
2019-03-12T20:27:17.199Z,43.60
2019-03-12T20:30:21.510Z,44.10
2019-03-12T20:33:20.976Z,43.40
2019-03-12T20:36:39.116Z,43.60
2019-03-12T20:39:49.981Z,44.70
2019-03-12T20:43:05.003Z,45.10
2019-03-12T20:46:04.377Z,45.10
2019-03-12T20:49:11.414Z,45.10
2019-03-12T20:52:31.925Z,45.60
2019-03-12T20:55:48.168Z,45.70
2019-03-12T20:59:06.254Z,45.10
2019-03-12T21:02:05.602Z,45.40
2019-03-12T21:05:14.678Z,45.00
2019-03-12T21:08:32.689Z,45.90
2019-03-12T21:11:32.010Z,45.50
2019-03-12T21:14:52.997Z,45.30
2019-03-12T21:17:55.397Z,45.50
2019-03-12T21:21:05.642Z,45.20
2019-03-12T21:24:10.515Z,45.70
2019-03-12T21:27:01.248Z,45.50
2019-03-12T21:29:44.783Z,45.30
2019-03-12T21:32:14.671Z,45.80
2019-03-12T21:34:43.491Z,45.70
2019-03-12T21:37:12.684Z,45.70
2019-03-12T21:39:54.058Z,45.90
2019-03-12T21:42:12.438Z,45.40
2019-03-12T21:44:41.361Z,45.50
2019-03-12T21:47:10.348Z,45.20
2019-03-12T21:49:39.314Z,45.40
2019-03-12T21:52:08.924Z,45.40
2019-03-12T21:54:38.468Z,45.40
2019-03-12T21:57:07.296Z,45.40
2019-03-12T21:59:36.306Z,45.40
2019-03-12T22:02:05.295Z,45.60
2019-03-12T22:04:34.125Z,45.00
2019-03-12T22:07:03.063Z,45.40
2019-03-12T22:09:31.950Z,45.40
2019-03-12T22:12:00.854Z,45.40
2019-03-12T22:14:29.689Z,45.30
2019-03-12T22:17:00.094Z,45.20
2019-03-12T22:19:29.019Z,45.30
2019-03-12T22:22:09.240Z,45.60
2019-03-12T22:24:38.154Z,45.60
2019-03-12T22:27:07.120Z,45.10
2019-03-12T22:29:35.950Z,45.00
2019-03-12T22:32:04.962Z,45.30
2019-03-12T22:34:33.807Z,46.00
2019-03-12T22:37:02.677Z,45.40
2019-03-12T22:39:31.481Z,45.20
2019-03-12T22:42:00.331Z,45.10
2019-03-12T22:44:29.130Z,45.40
2019-03-12T22:46:57.969Z,45.00
2019-03-12T22:49:26.883Z,45.30
2019-03-12T22:51:55.768Z,45.50
2019-03-12T22:54:24.611Z,44.80
2019-03-12T22:56:53.684Z,45.10
2019-03-12T22:59:22.521Z,45.60
2019-03-12T23:01:51.713Z,45.50
2019-03-12T23:04:20.571Z,44.50
2019-03-12T23:06:49.544Z,44.70
2019-03-12T23:09:18.476Z,45.20
2019-03-12T23:11:47.635Z,45.10
2019-03-12T23:14:16.447Z,45.30
2019-03-12T23:16:45.547Z,45.20
2019-03-12T23:19:14.987Z,45.20
2019-03-12T23:21:44.866Z,45.00
2019-03-12T23:24:13.818Z,45.30
2019-03-12T23:26:42.853Z,45.10
2019-03-12T23:29:12.173Z,45.20
2019-03-12T23:31:41.093Z,44.90
2019-03-12T23:34:10.191Z,45.30
2019-03-12T23:36:39.182Z,45.60
2019-03-12T23:39:08.945Z,44.90
2019-03-12T23:41:37.773Z,45.40
2019-03-12T23:44:06.775Z,45.30
2019-03-12T23:46:35.743Z,45.30
2019-03-12T23:49:04.818Z,45.40
2019-03-12T23:51:33.713Z,44.80
2019-03-12T23:54:02.535Z,45.10
2019-03-12T23:56:31.460Z,45.50
2019-03-12T23:59:00.439Z,45.20
